sensor_id;sensor_type;location;lat;lon;timestamp;pressure;altitude;pressure_sealevel;temperature
27715;BMP280;16051;53.024;8.630;2022-09-09T00:01:13;100739.59;;;14.65
27715;BMP280;16051;53.024;8.630;2022-09-09T00:05:29;100741.34;;;14.63
27715;BMP280;16051;53.024;8.630;2022-09-09T00:09:46;100736.50;;;14.58
27715;BMP280;16051;53.024;8.630;2022-09-09T00:13:53;100738.03;;;14.53
27715;BMP280;16051;53.024;8.630;2022-09-09T00:18:18;100727.91;;;14.50
27715;BMP280;16051;53.024;8.630;2022-09-09T00:22:25;100731.66;;;14.47
27715;BMP280;16051;53.024;8.630;2022-09-09T00:26:38;100730.41;;;14.48
27715;BMP280;16051;53.024;8.630;2022-09-09T00:30:42;100739.97;;;14.42
27715;BMP280;16051;53.024;8.630;2022-09-09T00:34:49;100746.53;;;14.39
27715;BMP280;16051;53.024;8.630;2022-09-09T00:38:58;100734.91;;;14.35
27715;BMP280;16051;53.024;8.630;2022-09-09T00:43:24;100732.81;;;14.29
27715;BMP280;16051;53.024;8.630;2022-09-09T00:47:43;100740.38;;;14.29
27715;BMP280;16051;53.024;8.630;2022-09-09T00:52:01;100730.25;;;14.26
27715;BMP280;16051;53.024;8.630;2022-09-09T00:56:13;100729.00;;;14.21
27715;BMP280;16051;53.024;8.630;2022-09-09T01:00:29;100732.25;;;14.20
27715;BMP280;16051;53.024;8.630;2022-09-09T01:04:37;100736.50;;;14.15
27715;BMP280;16051;53.024;8.630;2022-09-09T01:09:07;100736.75;;;14.12
27715;BMP280;16051;53.024;8.630;2022-09-09T01:13:19;100739.50;;;14.12
27715;BMP280;16051;53.024;8.630;2022-09-09T01:17:31;100736.97;;;14.08
27715;BMP280;16051;53.024;8.630;2022-09-09T01:21:47;100729.38;;;14.03
27715;BMP280;16051;53.024;8.630;2022-09-09T01:26:16;100742.72;;;13.99
27715;BMP280;16051;53.024;8.630;2022-09-09T01:30:22;100727.06;;;13.96
27715;BMP280;16051;53.024;8.630;2022-09-09T01:34:29;100737.13;;;13.94
27715;BMP280;16051;53.024;8.630;2022-09-09T01:38:34;100720.69;;;13.90
27715;BMP280;16051;53.024;8.630;2022-09-09T01:42:39;100717.38;;;13.86
27715;BMP280;16051;53.024;8.630;2022-09-09T01:46:41;100724.44;;;13.82
27715;BMP280;16051;53.024;8.630;2022-09-09T01:50:43;100720.88;;;13.81
27715;BMP280;16051;53.024;8.630;2022-09-09T01:54:45;100712.28;;;13.79
27715;BMP280;16051;53.024;8.630;2022-09-09T01:59:07;100700.16;;;13.76
27715;BMP280;16051;53.024;8.630;2022-09-09T02:03:20;100700.88;;;13.71
27715;BMP280;16051;53.024;8.630;2022-09-09T02:07:38;100706.63;;;13.68
27715;BMP280;16051;53.024;8.630;2022-09-09T02:11:44;100709.41;;;13.68
27715;BMP280;16051;53.024;8.630;2022-09-09T02:15:57;100716.47;;;13.63
27715;BMP280;16051;53.024;8.630;2022-09-09T02:20:07;100708.38;;;13.60
27715;BMP280;16051;53.024;8.630;2022-09-09T02:24:14;100708.53;;;13.51
27715;BMP280;16051;53.024;8.630;2022-09-09T02:28:20;100711.78;;;13.49
27715;BMP280;16051;53.024;8.630;2022-09-09T02:32:27;100713.28;;;13.45
27715;BMP280;16051;53.024;8.630;2022-09-09T02:37:03;100703.16;;;13.42
27715;BMP280;16051;53.024;8.630;2022-09-09T02:41:05;100702.09;;;13.39
27715;BMP280;16051;53.024;8.630;2022-09-09T02:45:10;100702.88;;;13.40
27715;BMP280;16051;53.024;8.630;2022-09-09T02:49:23;100699.31;;;13.34
27715;BMP280;16051;53.024;8.630;2022-09-09T02:53:35;100694.75;;;13.30
27715;BMP280;16051;53.024;8.630;2022-09-09T02:57:42;100706.81;;;13.27
27715;BMP280;16051;53.024;8.630;2022-09-09T03:01:57;100700.00;;;13.28
27715;BMP280;16051;53.024;8.630;2022-09-09T03:06:01;100702.78;;;13.28
27715;BMP280;16051;53.024;8.630;2022-09-09T03:10:04;100704.31;;;13.29
27715;BMP280;16051;53.024;8.630;2022-09-09T03:14:06;100710.41;;;13.34
27715;BMP280;16051;53.024;8.630;2022-09-09T03:18:09;100717.72;;;13.37
27715;BMP280;16051;53.024;8.630;2022-09-09T03:22:12;100721.81;;;13.41
27715;BMP280;16051;53.024;8.630;2022-09-09T03:26:25;100717.06;;;13.47
27715;BMP280;16051;53.024;8.630;2022-09-09T03:30:27;100723.16;;;13.51
27715;BMP280;16051;53.024;8.630;2022-09-09T03:34:30;100726.19;;;13.53
27715;BMP280;16051;53.024;8.630;2022-09-09T03:38:33;100721.47;;;13.59
27715;BMP280;16051;53.024;8.630;2022-09-09T03:42:36;100717.44;;;13.60
27715;BMP280;16051;53.024;8.630;2022-09-09T03:46:38;100723.56;;;13.70
27715;BMP280;16051;53.024;8.630;2022-09-09T03:50:44;100726.59;;;13.72
27715;BMP280;16051;53.024;8.630;2022-09-09T03:54:48;100720.56;;;13.73
27715;BMP280;16051;53.024;8.630;2022-09-09T03:58:50;100722.63;;;13.78
27715;BMP280;16051;53.024;8.630;2022-09-09T04:02:52;100716.09;;;13.82
27715;BMP280;16051;53.024;8.630;2022-09-09T04:06:58;100720.38;;;13.82
27715;BMP280;16051;53.024;8.630;2022-09-09T04:11:02;100722.94;;;13.86
27715;BMP280;16051;53.024;8.630;2022-09-09T04:15:10;100723.22;;;13.88
27715;BMP280;16051;53.024;8.630;2022-09-09T04:19:13;100725.72;;;13.86
27715;BMP280;16051;53.024;8.630;2022-09-09T04:23:15;100729.03;;;13.90
27715;BMP280;16051;53.024;8.630;2022-09-09T04:27:20;100731.31;;;13.92
27715;BMP280;16051;53.024;8.630;2022-09-09T04:31:22;100734.34;;;13.94
27715;BMP280;16051;53.024;8.630;2022-09-09T04:35:25;100730.03;;;13.93
27715;BMP280;16051;53.024;8.630;2022-09-09T04:39:27;100736.88;;;13.92
27715;BMP280;16051;53.024;8.630;2022-09-09T04:43:31;100744.16;;;13.89
27715;BMP280;16051;53.024;8.630;2022-09-09T04:47:46;100749.44;;;13.87
27715;BMP280;16051;53.024;8.630;2022-09-09T04:51:49;100755.97;;;13.84
27715;BMP280;16051;53.024;8.630;2022-09-09T04:55:51;100747.88;;;13.80
27715;BMP280;16051;53.024;8.630;2022-09-09T04:59:55;100754.41;;;13.77
27715;BMP280;16051;53.024;8.630;2022-09-09T05:03:57;100757.69;;;13.76
27715;BMP280;16051;53.024;8.630;2022-09-09T05:08:02;100756.91;;;13.75
27715;BMP280;16051;53.024;8.630;2022-09-09T05:12:40;100770.25;;;13.71
27715;BMP280;16051;53.024;8.630;2022-09-09T05:16:44;100766.44;;;13.69
27715;BMP280;16051;53.024;8.630;2022-09-09T05:20:47;100771.75;;;13.67
27715;BMP280;16051;53.024;8.630;2022-09-09T05:24:50;100772.97;;;13.66
27715;BMP280;16051;53.024;8.630;2022-09-09T05:28:52;100773.47;;;13.64
27715;BMP280;16051;53.024;8.630;2022-09-09T05:32:57;100782.06;;;13.66
27715;BMP280;16051;53.024;8.630;2022-09-09T05:37:11;100782.34;;;13.68
27715;BMP280;16051;53.024;8.630;2022-09-09T05:41:14;100782.13;;;13.72
27715;BMP280;16051;53.024;8.630;2022-09-09T05:45:17;100777.38;;;13.78
27715;BMP280;16051;53.024;8.630;2022-09-09T05:49:21;100788.78;;;13.86
27715;BMP280;16051;53.024;8.630;2022-09-09T05:53:24;100786.06;;;13.91
27715;BMP280;16051;53.024;8.630;2022-09-09T05:57:26;100789.63;;;13.97
27715;BMP280;16051;53.024;8.630;2022-09-09T06:02:02;100787.63;;;13.98
27715;BMP280;16051;53.024;8.630;2022-09-09T06:06:17;100790.19;;;14.01
27715;BMP280;16051;53.024;8.630;2022-09-09T06:10:21;100787.19;;;14.05
27715;BMP280;16051;53.024;8.630;2022-09-09T06:15:13;100786.41;;;14.04
27715;BMP280;16051;53.024;8.630;2022-09-09T06:19:15;100794.50;;;14.02
27715;BMP280;16051;53.024;8.630;2022-09-09T06:23:19;100784.41;;;14.05
27715;BMP280;16051;53.024;8.630;2022-09-09T06:27:21;100783.94;;;14.06
27715;BMP280;16051;53.024;8.630;2022-09-09T06:31:25;100782.41;;;14.11
27715;BMP280;16051;53.024;8.630;2022-09-09T06:35:31;100788.50;;;14.15
27715;BMP280;16051;53.024;8.630;2022-09-09T06:39:34;100778.72;;;14.19
27715;BMP280;16051;53.024;8.630;2022-09-09T06:43:36;100788.34;;;14.24
27715;BMP280;16051;53.024;8.630;2022-09-09T06:47:39;100777.00;;;14.27
27715;BMP280;16051;53.024;8.630;2022-09-09T06:51:41;100782.56;;;14.33
27715;BMP280;16051;53.024;8.630;2022-09-09T06:55:45;100783.13;;;14.37
27715;BMP280;16051;53.024;8.630;2022-09-09T06:59:48;100780.66;;;14.45
27715;BMP280;16051;53.024;8.630;2022-09-09T07:03:53;100771.16;;;14.57
27715;BMP280;16051;53.024;8.630;2022-09-09T07:07:55;100767.91;;;14.69
27715;BMP280;16051;53.024;8.630;2022-09-09T07:11:59;100780.09;;;14.83
27715;BMP280;16051;53.024;8.630;2022-09-09T07:16:21;100778.94;;;15.06
27715;BMP280;16051;53.024;8.630;2022-09-09T07:20:25;100785.56;;;15.25
27715;BMP280;16051;53.024;8.630;2022-09-09T07:24:27;100790.91;;;15.46
27715;BMP280;16051;53.024;8.630;2022-09-09T07:28:32;100796.28;;;15.71
27715;BMP280;16051;53.024;8.630;2022-09-09T07:32:35;100797.59;;;15.87
27715;BMP280;16051;53.024;8.630;2022-09-09T07:36:39;100798.81;;;16.03
27715;BMP280;16051;53.024;8.630;2022-09-09T07:40:53;100800.59;;;16.17
27715;BMP280;16051;53.024;8.630;2022-09-09T07:44:57;100793.78;;;16.23
27715;BMP280;16051;53.024;8.630;2022-09-09T07:49:02;100799.81;;;16.39
27715;BMP280;16051;53.024;8.630;2022-09-09T07:53:12;100799.78;;;16.50
27715;BMP280;16051;53.024;8.630;2022-09-09T07:57:16;100794.22;;;16.50
27715;BMP280;16051;53.024;8.630;2022-09-09T08:01:25;100790.94;;;16.57
27715;BMP280;16051;53.024;8.630;2022-09-09T08:05:36;100792.72;;;16.60
27715;BMP280;16051;53.024;8.630;2022-09-09T08:09:40;100793.19;;;16.69
27715;BMP280;16051;53.024;8.630;2022-09-09T08:13:44;100787.03;;;16.88
27715;BMP280;16051;53.024;8.630;2022-09-09T08:17:55;100809.25;;;17.10
27715;BMP280;16051;53.024;8.630;2022-09-09T08:22:11;100796.75;;;17.22
27715;BMP280;16051;53.024;8.630;2022-09-09T08:26:15;100808.94;;;17.25
27715;BMP280;16051;53.024;8.630;2022-09-09T08:30:18;100801.78;;;17.29
27715;BMP280;16051;53.024;8.630;2022-09-09T08:34:26;100798.94;;;17.40
27715;BMP280;16051;53.024;8.630;2022-09-09T08:38:30;100806.22;;;17.54
27715;BMP280;16051;53.024;8.630;2022-09-09T08:42:45;100817.09;;;17.63
27715;BMP280;16051;53.024;8.630;2022-09-09T08:47:01;100813.47;;;17.74
27715;BMP280;16051;53.024;8.630;2022-09-09T08:51:13;100805.97;;;17.93
27715;BMP280;16051;53.024;8.630;2022-09-09T08:55:25;100812.94;;;18.11
27715;BMP280;16051;53.024;8.630;2022-09-09T08:59:28;100816.97;;;18.15
27715;BMP280;16051;53.024;8.630;2022-09-09T09:03:48;100817.94;;;18.48
27715;BMP280;16051;53.024;8.630;2022-09-09T09:08:03;100818.88;;;18.56
27715;BMP280;16051;53.024;8.630;2022-09-09T09:12:16;100831.66;;;18.51
27715;BMP280;16051;53.024;8.630;2022-09-09T09:16:34;100825.75;;;18.55
27715;BMP280;16051;53.024;8.630;2022-09-09T09:20:55;100833.03;;;18.63
27715;BMP280;16051;53.024;8.630;2022-09-09T09:25:12;100829.06;;;18.53
27715;BMP280;16051;53.024;8.630;2022-09-09T09:29:19;100835.06;;;18.63
27715;BMP280;16051;53.024;8.630;2022-09-09T09:33:28;100830.72;;;18.67
27715;BMP280;16051;53.024;8.630;2022-09-09T09:37:35;100831.28;;;18.85
27715;BMP280;16051;53.024;8.630;2022-09-09T09:41:42;100829.22;;;19.09
27715;BMP280;16051;53.024;8.630;2022-09-09T09:45:45;100839.72;;;19.22
27715;BMP280;16051;53.024;8.630;2022-09-09T09:49:54;100827.00;;;19.21
27715;BMP280;16051;53.024;8.630;2022-09-09T09:54:21;100835.81;;;19.31
27715;BMP280;16051;53.024;8.630;2022-09-09T09:58:29;100825.91;;;19.48
27715;BMP280;16051;53.024;8.630;2022-09-09T10:02:40;100839.00;;;19.59
27715;BMP280;16051;53.024;8.630;2022-09-09T10:06:44;100834.00;;;19.71
27715;BMP280;16051;53.024;8.630;2022-09-09T10:11:24;100844.44;;;19.70
27715;BMP280;16051;53.024;8.630;2022-09-09T10:15:41;100833.41;;;19.59
27715;BMP280;16051;53.024;8.630;2022-09-09T10:20:04;100833.03;;;19.49
27715;BMP280;16051;53.024;8.630;2022-09-09T10:24:38;100837.41;;;19.63
27715;BMP280;16051;53.024;8.630;2022-09-09T10:29:22;100829.81;;;19.77
27715;BMP280;16051;53.024;8.630;2022-09-09T10:33:37;100835.72;;;19.74
27715;BMP280;16051;53.024;8.630;2022-09-09T10:38:13;100827.91;;;19.85
27715;BMP280;16051;53.024;8.630;2022-09-09T10:42:19;100827.97;;;19.98
27715;BMP280;16051;53.024;8.630;2022-09-09T10:46:42;100838.22;;;20.09
27715;BMP280;16051;53.024;8.630;2022-09-09T10:50:55;100829.16;;;20.48
27715;BMP280;16051;53.024;8.630;2022-09-09T10:55:09;100825.63;;;20.74
27715;BMP280;16051;53.024;8.630;2022-09-09T10:59:17;100828.22;;;20.98
27715;BMP280;16051;53.024;8.630;2022-09-09T11:03:27;100827.13;;;21.01
27715;BMP280;16051;53.024;8.630;2022-09-09T11:07:41;100827.56;;;20.92
27715;BMP280;16051;53.024;8.630;2022-09-09T11:11:52;100823.47;;;20.80
27715;BMP280;16051;53.024;8.630;2022-09-09T11:16:03;100836.94;;;20.55
27715;BMP280;16051;53.024;8.630;2022-09-09T11:20:11;100835.28;;;20.33
27715;BMP280;16051;53.024;8.630;2022-09-09T11:24:22;100835.03;;;20.18
27715;BMP280;16051;53.024;8.630;2022-09-09T11:28:44;100832.19;;;20.05
27715;BMP280;16051;53.024;8.630;2022-09-09T11:33:30;100841.06;;;19.90
27715;BMP280;16051;53.024;8.630;2022-09-09T11:42:27;100833.63;;;19.61
27715;BMP280;16051;53.024;8.630;2022-09-09T11:46:36;100847.94;;;19.57
27715;BMP280;16051;53.024;8.630;2022-09-09T11:50:39;100852.19;;;19.45
27715;BMP280;16051;53.024;8.630;2022-09-09T11:54:48;100854.09;;;19.32
27715;BMP280;16051;53.024;8.630;2022-09-09T11:59:00;100862.84;;;19.04
27715;BMP280;16051;53.024;8.630;2022-09-09T12:03:42;100849.88;;;18.82
27715;BMP280;16051;53.024;8.630;2022-09-09T12:07:53;100837.53;;;18.72
27715;BMP280;16051;53.024;8.630;2022-09-09T12:12:24;100829.25;;;18.61
27715;BMP280;16051;53.024;8.630;2022-09-09T12:16:37;100837.03;;;18.44
27715;BMP280;16051;53.024;8.630;2022-09-09T12:20:57;100835.66;;;18.56
27715;BMP280;16051;53.024;8.630;2022-09-09T12:25:16;100837.34;;;18.64
27715;BMP280;16051;53.024;8.630;2022-09-09T12:29:37;100844.53;;;18.84
27715;BMP280;16051;53.024;8.630;2022-09-09T12:33:45;100836.81;;;18.90
27715;BMP280;16051;53.024;8.630;2022-09-09T12:37:52;100826.94;;;19.08
27715;BMP280;16051;53.024;8.630;2022-09-09T12:41:57;100824.66;;;19.06
27715;BMP280;16051;53.024;8.630;2022-09-09T12:46:03;100818.59;;;19.21
27715;BMP280;16051;53.024;8.630;2022-09-09T12:50:18;100817.13;;;19.39
27715;BMP280;16051;53.024;8.630;2022-09-09T12:54:21;100812.13;;;19.50
27715;BMP280;16051;53.024;8.630;2022-09-09T12:58:24;100824.25;;;19.58
27715;BMP280;16051;53.024;8.630;2022-09-09T13:02:32;100838.00;;;19.75
27715;BMP280;16051;53.024;8.630;2022-09-09T13:06:36;100833.28;;;20.15
27715;BMP280;16051;53.024;8.630;2022-09-09T13:10:44;100829.91;;;20.35
27715;BMP280;16051;53.024;8.630;2022-09-09T13:14:52;100834.25;;;20.36
27715;BMP280;16051;53.024;8.630;2022-09-09T13:18:56;100851.75;;;20.24
27715;BMP280;16051;53.024;8.630;2022-09-09T13:22:59;100847.06;;;20.00
27715;BMP280;16051;53.024;8.630;2022-09-09T13:27:26;100852.25;;;19.77
27715;BMP280;16051;53.024;8.630;2022-09-09T13:31:36;100853.97;;;19.61
27715;BMP280;16051;53.024;8.630;2022-09-09T13:35:47;100856.28;;;19.44
27715;BMP280;16051;53.024;8.630;2022-09-09T13:39:53;100858.72;;;19.29
27715;BMP280;16051;53.024;8.630;2022-09-09T13:43:55;100847.91;;;19.20
27715;BMP280;16051;53.024;8.630;2022-09-09T13:48:09;100853.81;;;19.16
27715;BMP280;16051;53.024;8.630;2022-09-09T13:52:33;100867.47;;;19.01
27715;BMP280;16051;53.024;8.630;2022-09-09T13:56:36;100858.50;;;18.84
27715;BMP280;16051;53.024;8.630;2022-09-09T14:00:39;100866.59;;;18.63
27715;BMP280;16051;53.024;8.630;2022-09-09T14:04:43;100866.69;;;18.52
27715;BMP280;16051;53.024;8.630;2022-09-09T14:08:45;100852.19;;;18.24
27715;BMP280;16051;53.024;8.630;2022-09-09T14:12:47;100847.25;;;18.06
27715;BMP280;16051;53.024;8.630;2022-09-09T14:16:49;100831.63;;;17.92
27715;BMP280;16051;53.024;8.630;2022-09-09T14:20:53;100829.19;;;17.77
27715;BMP280;16051;53.024;8.630;2022-09-09T14:24:55;100825.97;;;17.67
27715;BMP280;16051;53.024;8.630;2022-09-09T14:28:58;100814.13;;;17.50
27715;BMP280;16051;53.024;8.630;2022-09-09T14:33:15;100804.56;;;17.35
27715;BMP280;16051;53.024;8.630;2022-09-09T14:37:25;100807.84;;;17.33
27715;BMP280;16051;53.024;8.630;2022-09-09T14:41:29;100804.06;;;17.36
27715;BMP280;16051;53.024;8.630;2022-09-09T14:45:31;100809.63;;;17.36
27715;BMP280;16051;53.024;8.630;2022-09-09T14:49:38;100813.16;;;17.37
27715;BMP280;16051;53.024;8.630;2022-09-09T14:53:43;100812.72;;;17.27
27715;BMP280;16051;53.024;8.630;2022-09-09T14:57:45;100825.91;;;17.32
27715;BMP280;16051;53.024;8.630;2022-09-09T15:01:47;100817.53;;;17.32
27715;BMP280;16051;53.024;8.630;2022-09-09T15:05:49;100817.53;;;17.32
27715;BMP280;16051;53.024;8.630;2022-09-09T15:09:55;100798.00;;;17.32
27715;BMP280;16051;53.024;8.630;2022-09-09T15:13:57;100802.00;;;17.37
27715;BMP280;16051;53.024;8.630;2022-09-09T15:18:00;100799.19;;;17.42
27715;BMP280;16051;53.024;8.630;2022-09-09T15:22:02;100806.53;;;17.45
27715;BMP280;16051;53.024;8.630;2022-09-09T15:26:08;100795.31;;;17.51
27715;BMP280;16051;53.024;8.630;2022-09-09T15:30:11;100797.78;;;17.65
27715;BMP280;16051;53.024;8.630;2022-09-09T15:34:14;100791.69;;;17.67
27715;BMP280;16051;53.024;8.630;2022-09-09T15:38:16;100781.28;;;17.67
27715;BMP280;16051;53.024;8.630;2022-09-09T15:42:21;100783.88;;;17.60
27715;BMP280;16051;53.024;8.630;2022-09-09T15:46:37;100784.63;;;17.60
27715;BMP280;16051;53.024;8.630;2022-09-09T15:50:40;100793.00;;;17.55
27715;BMP280;16051;53.024;8.630;2022-09-09T15:54:42;100778.88;;;17.42
27715;BMP280;16051;53.024;8.630;2022-09-09T15:58:48;100790.81;;;17.42
27715;BMP280;16051;53.024;8.630;2022-09-09T16:02:50;100785.75;;;17.41
27715;BMP280;16051;53.024;8.630;2022-09-09T16:07:02;100784.69;;;17.44
27715;BMP280;16051;53.024;8.630;2022-09-09T16:11:19;100777.34;;;17.46
27715;BMP280;16051;53.024;8.630;2022-09-09T16:15:23;100783.16;;;17.48
27715;BMP280;16051;53.024;8.630;2022-09-09T16:19:25;100789.84;;;17.34
27715;BMP280;16051;53.024;8.630;2022-09-09T16:23:28;100794.91;;;17.36
27715;BMP280;16051;53.024;8.630;2022-09-09T16:27:36;100782.25;;;17.29
27715;BMP280;16051;53.024;8.630;2022-09-09T16:31:41;100788.38;;;17.22
27715;BMP280;16051;53.024;8.630;2022-09-09T16:35:43;100798.53;;;17.25
27715;BMP280;16051;53.024;8.630;2022-09-09T16:39:45;100816.06;;;17.20
27715;BMP280;16051;53.024;8.630;2022-09-09T16:43:52;100818.84;;;17.20
27715;BMP280;16051;53.024;8.630;2022-09-09T16:48:01;100850.31;;;17.15
27715;BMP280;16051;53.024;8.630;2022-09-09T16:52:03;100891.66;;;17.16
27715;BMP280;16051;53.024;8.630;2022-09-09T16:56:08;100880.53;;;17.05
27715;BMP280;16051;53.024;8.630;2022-09-09T17:00:11;100874.19;;;17.05
27715;BMP280;16051;53.024;8.630;2022-09-09T17:04:18;100884.63;;;16.93
27715;BMP280;16051;53.024;8.630;2022-09-09T17:08:22;100891.78;;;16.78
27715;BMP280;16051;53.024;8.630;2022-09-09T17:12:25;100903.44;;;16.54
27715;BMP280;16051;53.024;8.630;2022-09-09T17:16:33;100899.16;;;16.42
27715;BMP280;16051;53.024;8.630;2022-09-09T17:20:40;100907.75;;;16.38
27715;BMP280;16051;53.024;8.630;2022-09-09T17:24:44;100905.72;;;16.28
27715;BMP280;16051;53.024;8.630;2022-09-09T17:28:56;100902.16;;;16.21
27715;BMP280;16051;53.024;8.630;2022-09-09T17:32:59;100896.84;;;16.12
27715;BMP280;16051;53.024;8.630;2022-09-09T17:37:18;100904.44;;;16.06
27715;BMP280;16051;53.024;8.630;2022-09-09T17:41:25;100906.72;;;16.02
27715;BMP280;16051;53.024;8.630;2022-09-09T17:45:31;100902.41;;;16.01
27715;BMP280;16051;53.024;8.630;2022-09-09T17:49:33;100899.09;;;15.92
27715;BMP280;16051;53.024;8.630;2022-09-09T17:53:39;100895.53;;;15.86
27715;BMP280;16051;53.024;8.630;2022-09-09T17:58:05;100895.78;;;15.82
27715;BMP280;16051;53.024;8.630;2022-09-09T18:02:10;100894.00;;;15.79
27715;BMP280;16051;53.024;8.630;2022-09-09T18:06:15;100890.75;;;15.81
27715;BMP280;16051;53.024;8.630;2022-09-09T18:10:19;100886.97;;;15.95
27715;BMP280;16051;53.024;8.630;2022-09-09T18:14:24;100885.41;;;15.88
27715;BMP280;16051;53.024;8.630;2022-09-09T18:18:28;100884.16;;;15.89
27715;BMP280;16051;53.024;8.630;2022-09-09T18:22:31;100887.47;;;15.88
27715;BMP280;16051;53.024;8.630;2022-09-09T18:26:38;100876.56;;;15.95
27715;BMP280;16051;53.024;8.630;2022-09-09T18:30:41;100876.06;;;15.97
27715;BMP280;16051;53.024;8.630;2022-09-09T18:34:44;100887.47;;;15.99
27715;BMP280;16051;53.024;8.630;2022-09-09T18:38:47;100884.41;;;15.97
27715;BMP280;16051;53.024;8.630;2022-09-09T18:42:51;100880.34;;;15.92
27715;BMP280;16051;53.024;8.630;2022-09-09T18:46:53;100883.41;;;15.94
27715;BMP280;16051;53.024;8.630;2022-09-09T18:50:57;100876.84;;;15.97
27715;BMP280;16051;53.024;8.630;2022-09-09T18:55:13;100884.41;;;15.86
27715;BMP280;16051;53.024;8.630;2022-09-09T18:59:20;100882.88;;;15.79
27715;BMP280;16051;53.024;8.630;2022-09-09T19:03:24;100878.84;;;15.80
27715;BMP280;16051;53.024;8.630;2022-09-09T19:07:27;100882.84;;;15.73
27715;BMP280;16051;53.024;8.630;2022-09-09T19:11:29;100892.97;;;15.65
27715;BMP280;16051;53.024;8.630;2022-09-09T19:15:39;100897.75;;;15.59
27715;BMP280;16051;53.024;8.630;2022-09-09T19:19:41;100899.03;;;15.58
27715;BMP280;16051;53.024;8.630;2022-09-09T19:23:45;100909.63;;;15.54
27715;BMP280;16051;53.024;8.630;2022-09-09T19:27:47;100904.31;;;15.51
27715;BMP280;16051;53.024;8.630;2022-09-09T19:31:54;100914.91;;;15.47
27715;BMP280;16051;53.024;8.630;2022-09-09T19:35:59;100926.25;;;15.43
27715;BMP280;16051;53.024;8.630;2022-09-09T19:40:03;100926.00;;;15.41
27715;BMP280;16051;53.024;8.630;2022-09-09T19:44:14;100933.31;;;15.39
27715;BMP280;16051;53.024;8.630;2022-09-09T19:48:18;100924.97;;;15.33
27715;BMP280;16051;53.024;8.630;2022-09-09T19:52:21;100924.69;;;15.31
27715;BMP280;16051;53.024;8.630;2022-09-09T19:56:25;100927.19;;;15.23
27715;BMP280;16051;53.024;8.630;2022-09-09T20:00:28;100923.13;;;15.19
27715;BMP280;16051;53.024;8.630;2022-09-09T20:04:31;100928.94;;;15.15
27715;BMP280;16051;53.024;8.630;2022-09-09T20:08:36;100929.91;;;15.12
27715;BMP280;16051;53.024;8.630;2022-09-09T20:12:38;100936.22;;;15.13
27715;BMP280;16051;53.024;8.630;2022-09-09T20:16:54;100934.19;;;15.08
27715;BMP280;16051;53.024;8.630;2022-09-09T20:20:58;100932.91;;;15.09
27715;BMP280;16051;53.024;8.630;2022-09-09T20:25:01;100932.44;;;15.10
27715;BMP280;16051;53.024;8.630;2022-09-09T20:29:06;100933.44;;;15.13
27715;BMP280;16051;53.024;8.630;2022-09-09T20:33:08;100928.41;;;15.11
27715;BMP280;16051;53.024;8.630;2022-09-09T20:37:12;100924.09;;;15.10
27715;BMP280;16051;53.024;8.630;2022-09-09T20:41:16;100922.84;;;15.11
27715;BMP280;16051;53.024;8.630;2022-09-09T20:45:21;100926.81;;;15.05
27715;BMP280;16051;53.024;8.630;2022-09-09T20:49:23;100927.81;;;14.96
27715;BMP280;16051;53.024;8.630;2022-09-09T20:53:27;100937.94;;;14.99
27715;BMP280;16051;53.024;8.630;2022-09-09T20:57:41;100940.72;;;14.99
27715;BMP280;16051;53.024;8.630;2022-09-09T21:01:43;100933.91;;;15.00
27715;BMP280;16051;53.024;8.630;2022-09-09T21:05:47;100933.91;;;15.00
27715;BMP280;16051;53.024;8.630;2022-09-09T21:09:52;100935.16;;;14.99
27715;BMP280;16051;53.024;8.630;2022-09-09T21:13:57;100931.38;;;15.02
27715;BMP280;16051;53.024;8.630;2022-09-09T21:17:59;100929.34;;;15.03
27715;BMP280;16051;53.024;8.630;2022-09-09T21:22:01;100923.31;;;15.04
27715;BMP280;16051;53.024;8.630;2022-09-09T21:26:05;100921.78;;;15.03
27715;BMP280;16051;53.024;8.630;2022-09-09T21:30:11;100932.13;;;15.03
27715;BMP280;16051;53.024;8.630;2022-09-09T21:34:13;100926.31;;;15.01
27715;BMP280;16051;53.024;8.630;2022-09-09T21:38:20;100932.38;;;14.99
27715;BMP280;16051;53.024;8.630;2022-09-09T21:42:24;100931.59;;;14.99
27715;BMP280;16051;53.024;8.630;2022-09-09T21:46:26;100938.41;;;14.98
27715;BMP280;16051;53.024;8.630;2022-09-09T21:50:29;100937.16;;;14.99
27715;BMP280;16051;53.024;8.630;2022-09-09T21:54:31;100939.94;;;14.99
27715;BMP280;16051;53.024;8.630;2022-09-09T21:58:35;100942.25;;;15.00
27715;BMP280;16051;53.024;8.630;2022-09-09T22:02:37;100946.25;;;14.99
27715;BMP280;16051;53.024;8.630;2022-09-09T22:06:51;100932.38;;;15.05
27715;BMP280;16051;53.024;8.630;2022-09-09T22:10:53;100937.94;;;15.05
27715;BMP280;16051;53.024;8.630;2022-09-09T22:14:56;100948.06;;;15.02
27715;BMP280;16051;53.024;8.630;2022-09-09T22:19:00;100955.69;;;15.07
27715;BMP280;16051;53.024;8.630;2022-09-09T22:23:02;100954.16;;;15.06
27715;BMP280;16051;53.024;8.630;2022-09-09T22:27:04;100951.84;;;15.05
27715;BMP280;16051;53.024;8.630;2022-09-09T22:31:08;100953.13;;;15.04
27715;BMP280;16051;53.024;8.630;2022-09-09T22:35:23;100953.38;;;15.06
27715;BMP280;16051;53.024;8.630;2022-09-09T22:39:26;100953.63;;;15.02
27715;BMP280;16051;53.024;8.630;2022-09-09T22:43:29;100950.38;;;15.09
27715;BMP280;16051;53.024;8.630;2022-09-09T22:47:34;100947.50;;;14.98
27715;BMP280;16051;53.024;8.630;2022-09-09T22:51:37;100948.78;;;14.97
27715;BMP280;16051;53.024;8.630;2022-09-09T22:55:40;100954.59;;;14.94
27715;BMP280;16051;53.024;8.630;2022-09-09T22:59:42;100967.44;;;14.91
27715;BMP280;16051;53.024;8.630;2022-09-09T23:03:47;100967.94;;;14.90
27715;BMP280;16051;53.024;8.630;2022-09-09T23:07:50;100958.84;;;14.89
27715;BMP280;16051;53.024;8.630;2022-09-09T23:11:53;100960.88;;;14.89
27715;BMP280;16051;53.024;8.630;2022-09-09T23:16:32;100964.41;;;14.89
27715;BMP280;16051;53.024;8.630;2022-09-09T23:20:39;100964.63;;;14.86
27715;BMP280;16051;53.024;8.630;2022-09-09T23:24:41;100963.88;;;14.85
27715;BMP280;16051;53.024;8.630;2022-09-09T23:28:43;100956.56;;;14.88
27715;BMP280;16051;53.024;8.630;2022-09-09T23:32:48;100960.59;;;14.87